Terminal Aerodrome Forecast
Issued by NWS

Home | Current Version | Previous Version | Text Only | Print | Product List | Glossary On
Versions: 1 2 3 4 5 6 7 8 9 10 11 12 13 14 15 16 17 18 19 20 21 22 23 24 25 26 27 28
000
FTUS44 KHGX 251737
TAFUTS
TAF
KUTS 251737Z 2518/2618 29006KT P6SM SKC
     FM252300 VRB03KT P6SM SKC
     FM260900 15003KT 5SM BR SKC
      TEMPO 2610/2613 3SM BR FEW003
     FM261330 18006KT P6SM FEW015
     FM261500 16010KT P6SM SCT020=

USA.gov is the U.S. government's official web portal to all federal, state and local government web resources and services.